Time,TemperatureF,DewpointF,PressureIn,WindDirection,WindDirectionDegrees,WindSpeedMPH,WindSpeedGustMPH,Humidity,HourlyPrecipIn,Conditions,Clouds,dailyrainin,SoftwareType,DateUTC
2013-02-11 00:01:00,24.0,11.0,-100.00,NNW,332,1.0,5.0,56,-99.99,,,-99.99,,2013-02-11 08:01:00,
2013-02-11 00:11:00,23.0,11.0,-100.00,North,0,2.0,4.0,59,-99.99,,,-99.99,,2013-02-11 08:11:00,
2013-02-11 00:21:00,23.0,11.0,-100.00,NNE,17,1.0,5.0,61,-99.99,,,-99.99,,2013-02-11 08:21:00,
2013-02-11 00:31:00,23.0,11.0,-100.00,NE,35,3.0,6.0,60,-99.99,,,-99.99,,2013-02-11 08:31:00,
2013-02-11 00:42:00,23.0,10.0,-100.00,NNE,25,2.0,5.0,58,-99.99,,,-99.99,,2013-02-11 08:42:00,
2013-02-11 00:52:00,22.0,10.0,-100.00,ENE,75,2.0,5.0,61,-99.99,,,-99.99,,2013-02-11 08:52:00,
2013-02-11 01:01:00,22.0,10.0,-100.00,SE,128,1.0,3.0,59,-99.99,,,-99.99,,2013-02-11 09:01:00,
2013-02-11 01:12:00,23.0,10.0,-100.00,South,189,0.0,3.0,58,-99.99,,,-99.99,,2013-02-11 09:12:00,
2013-02-11 01:21:00,23.0,9.0,-100.00,East,88,1.0,5.0,56,-99.99,,,-99.99,,2013-02-11 09:21:00,
2013-02-11 01:31:00,22.0,9.0,-100.00,ENE,73,1.0,4.0,56,-99.99,,,-99.99,,2013-02-11 09:31:00,
2013-02-11 01:41:00,23.0,9.0,-100.00,NW,323,1.0,4.0,55,-99.99,,,-99.99,,2013-02-11 09:41:00,
2013-02-11 01:51:00,23.0,9.0,-100.00,NW,323,1.0,4.0,55,-99.99,,,-99.99,,2013-02-11 09:51:00,
2013-02-11 02:01:00,22.0,9.0,-100.00,East,93,1.0,4.0,55,-99.99,,,-99.99,,2013-02-11 10:01:00,
2013-02-11 02:11:00,22.0,10.0,-100.00,North,349,2.0,5.0,59,-99.99,,,-99.99,,2013-02-11 10:11:00,
2013-02-11 02:21:00,21.0,10.0,-100.00,North,356,1.0,4.0,60,-99.99,,,-99.99,,2013-02-11 10:21:00,
2013-02-11 02:31:00,21.0,10.0,-100.00,North,356,1.0,4.0,60,-99.99,,,-99.99,,2013-02-11 10:31:00,
2013-02-11 02:41:00,23.0,12.0,-100.00,NW,315,5.0,9.0,61,-99.99,,,-99.99,,2013-02-11 10:41:00,
2013-02-11 02:51:00,23.0,12.0,-100.00,North,360,4.0,9.0,61,-99.99,,,-99.99,,2013-02-11 10:51:00,
2013-02-11 03:01:00,24.0,11.0,-100.00,NNW,340,4.0,10.0,57,-99.99,,,-99.99,,2013-02-11 11:01:00,
2013-02-11 03:11:00,23.0,11.0,-100.00,NNW,347,2.0,4.0,59,-99.99,,,-99.99,,2013-02-11 11:11:00,
2013-02-11 03:22:00,23.0,12.0,-100.00,NW,318,4.0,7.0,62,-99.99,,,-99.99,,2013-02-11 11:22:00,
2013-02-11 03:32:00,23.0,12.0,-100.00,NW,318,4.0,7.0,62,-99.99,,,-99.99,,2013-02-11 11:32:00,
2013-02-11 03:42:00,23.0,12.0,-100.00,NNW,333,3.0,6.0,62,-99.99,,,-99.99,,2013-02-11 11:42:00,
2013-02-11 03:52:00,24.0,11.0,-100.00,NW,318,4.0,12.0,58,-99.99,,,-99.99,,2013-02-11 11:52:00,
2013-02-11 04:03:00,22.0,11.0,-100.00,NE,42,4.0,6.0,60,-99.99,,,-99.99,,2013-02-11 12:03:00,
2013-02-11 04:12:00,22.0,11.0,-100.00,NE,42,4.0,6.0,60,-99.99,,,-99.99,,2013-02-11 12:12:00,
2013-02-11 05:01:00,20.0,10.0,-100.00,NE,40,2.0,6.0,64,-99.99,,,-99.99,,2013-02-11 13:01:00,
2013-02-11 05:11:00,20.0,10.0,-100.00,NNE,25,2.0,5.0,65,-99.99,,,-99.99,,2013-02-11 13:11:00,
2013-02-11 05:21:00,20.0,10.0,-100.00,North,350,3.0,5.0,64,-99.99,,,-99.99,,2013-02-11 13:21:00,
2013-02-11 05:32:00,20.0,10.0,-100.00,NNW,337,2.0,3.0,65,-99.99,,,-99.99,,2013-02-11 13:32:00,
2013-02-11 05:41:00,20.0,10.0,-100.00,NNE,31,3.0,5.0,63,-99.99,,,-99.99,,2013-02-11 13:41:00,
2013-02-11 05:51:00,19.0,10.0,-100.00,East,97,3.0,5.0,67,-99.99,,,-99.99,,2013-02-11 13:51:00,
2013-02-11 06:01:00,19.0,10.0,-100.00,East,97,3.0,5.0,67,-99.99,,,-99.99,,2013-02-11 14:01:00,
2013-02-11 06:11:00,18.0,10.0,-100.00,ESE,109,2.0,4.0,69,-99.99,,,-99.99,,2013-02-11 14:11:00,
2013-02-11 06:21:00,18.0,10.0,-100.00,ESE,102,3.0,4.0,68,-99.99,,,-99.99,,2013-02-11 14:21:00,
2013-02-11 06:32:00,19.0,10.0,-100.00,ESE,120,1.0,2.0,68,-99.99,,,-99.99,,2013-02-11 14:32:00,
2013-02-11 06:42:00,19.0,10.0,-100.00,ESE,116,3.0,4.0,66,-99.99,,,-99.99,,2013-02-11 14:42:00,
2013-02-11 06:52:00,19.0,10.0,-100.00,ESE,119,2.0,3.0,67,-99.99,,,-99.99,,2013-02-11 14:52:00,
2013-02-11 07:01:00,19.0,10.0,-100.00,ESE,119,2.0,3.0,67,-99.99,,,-99.99,,2013-02-11 15:01:00,
2013-02-11 07:52:00,19.0,10.0,-100.00,SE,126,3.0,4.0,67,-99.99,,,-99.99,,2013-02-11 15:52:00,
2013-02-11 08:01:00,19.0,10.0,-100.00,SE,138,2.0,4.0,67,-99.99,,,-99.99,,2013-02-11 16:01:00,
2013-02-11 08:11:00,20.0,10.0,-100.00,South,174,2.0,4.0,67,-99.99,,,-99.99,,2013-02-11 16:11:00,
2013-02-11 08:21:00,20.0,10.0,-100.00,South,174,2.0,4.0,67,-99.99,,,-99.99,,2013-02-11 16:21:00,
2013-02-11 08:32:00,19.0,10.0,-100.00,SE,126,2.0,3.0,66,-99.99,,,-99.99,,2013-02-11 16:32:00,
2013-02-11 08:42:00,19.0,10.0,-100.00,SE,131,3.0,4.0,66,-99.99,,,-99.99,,2013-02-11 16:42:00,
2013-02-11 08:52:00,19.0,10.0,-100.00,SE,131,3.0,4.0,66,-99.99,,,-99.99,,2013-02-11 16:52:00,
2013-02-11 09:01:00,19.0,9.0,-100.00,SE,133,2.0,3.0,66,-99.99,,,-99.99,,2013-02-11 17:01:00,
2013-02-11 09:11:00,19.0,10.0,-100.00,ESE,114,3.0,4.0,65,-99.99,,,-99.99,,2013-02-11 17:11:00,
2013-02-11 09:21:00,20.0,10.0,-100.00,ESE,114,2.0,4.0,66,-99.99,,,-99.99,,2013-02-11 17:21:00,
2013-02-11 09:32:00,20.0,10.0,-100.00,SE,126,1.0,4.0,63,-99.99,,,-99.99,,2013-02-11 17:32:00,
2013-02-11 09:42:00,21.0,9.0,-100.00,ESE,119,1.0,2.0,61,-99.99,,,-99.99,,2013-02-11 17:42:00,
2013-02-11 09:52:00,21.0,9.0,-100.00,ESE,119,1.0,2.0,61,-99.99,,,-99.99,,2013-02-11 17:52:00,
2013-02-11 10:01:00,22.0,10.0,-100.00,ENE,69,0.0,0.0,61,-99.99,,,-99.99,,2013-02-11 18:01:00,
2013-02-11 10:11:00,23.0,10.0,-100.00,NE,54,1.0,3.0,58,-99.99,,,-99.99,,2013-02-11 18:11:00,
2013-02-11 10:21:00,23.0,10.0,-100.00,NE,54,1.0,3.0,58,-99.99,,,-99.99,,2013-02-11 18:21:00,
2013-02-11 10:32:00,25.0,11.0,-100.00,East,93,0.0,2.0,54,-99.99,,,-99.99,,2013-02-11 18:32:00,
2013-02-11 10:42:00,27.0,12.0,-100.00,SSW,202,2.0,3.0,51,-99.99,,,-99.99,,2013-02-11 18:42:00,
2013-02-11 10:52:00,28.0,10.0,-100.00,NW,311,0.0,0.0,47,-99.99,,,-99.99,,2013-02-11 18:52:00,
2013-02-11 11:01:00,28.0,9.0,-100.00,SW,234,3.0,5.0,44,-99.99,,,-99.99,,2013-02-11 19:01:00,
2013-02-11 11:11:00,29.0,10.0,-100.00,SW,236,2.0,4.0,44,-99.99,,,-99.99,,2013-02-11 19:11:00,
2013-02-11 11:21:00,29.0,9.0,-100.00,SSW,208,3.0,4.0,43,-99.99,,,-99.99,,2013-02-11 19:21:00,
2013-02-11 11:31:00,29.0,9.0,-100.00,SSW,208,3.0,4.0,43,-99.99,,,-99.99,,2013-02-11 19:31:00,
2013-02-11 11:41:00,29.0,9.0,-100.00,SSW,208,3.0,4.0,43,-99.99,,,-99.99,,2013-02-11 19:41:00,
2013-02-11 12:01:00,31.0,6.0,-100.00,West,263,2.0,3.0,34,-99.99,,,-99.99,,2013-02-11 20:01:00,
2013-02-11 12:11:00,32.0,4.0,-100.00,NW,308,1.0,4.0,29,-99.99,,,-99.99,,2013-02-11 20:11:00,
2013-02-11 12:21:00,33.0,4.0,-100.00,NE,38,1.0,5.0,28,-99.99,,,-99.99,,2013-02-11 20:21:00,
2013-02-11 12:31:00,34.0,4.0,-100.00,NW,309,2.0,4.0,27,-99.99,,,-99.99,,2013-02-11 20:31:00,
2013-02-11 12:41:00,34.0,4.0,-100.00,WNW,287,2.0,4.0,28,-99.99,,,-99.99,,2013-02-11 20:41:00,
2013-02-11 12:52:00,32.0,10.0,-100.00,SSW,199,6.0,14.0,38,-99.99,,,-99.99,,2013-02-11 20:52:00,
2013-02-11 13:02:00,34.0,4.0,-100.00,NE,38,4.0,6.0,28,-99.99,,,-99.99,,2013-02-11 21:02:00,
2013-02-11 13:11:00,34.0,4.0,-100.00,ENE,58,4.0,8.0,28,-99.99,,,-99.99,,2013-02-11 21:11:00,
2013-02-11 13:21:00,34.0,5.0,-100.00,NE,42,4.0,7.0,29,-99.99,,,-99.99,,2013-02-11 21:21:00,
2013-02-11 13:31:00,34.0,5.0,-100.00,NE,35,1.0,3.0,28,-99.99,,,-99.99,,2013-02-11 21:31:00,
2013-02-11 13:41:00,34.0,5.0,-100.00,NE,35,1.0,3.0,28,-99.99,,,-99.99,,2013-02-11 21:41:00,
2013-02-11 13:51:00,35.0,10.0,-100.00,WNW,301,3.0,5.0,35,-99.99,,,-99.99,,2013-02-11 21:51:00,
2013-02-11 14:01:00,35.0,12.0,-100.00,NW,308,3.0,5.0,39,-99.99,,,-99.99,,2013-02-11 22:01:00,
2013-02-11 14:11:00,35.0,15.0,-100.00,WNW,298,4.0,6.0,43,-99.99,,,-99.99,,2013-02-11 22:11:00,
2013-02-11 14:21:00,34.0,14.0,-100.00,West,264,3.0,5.0,42,-99.99,,,-99.99,,2013-02-11 22:21:00,
2013-02-11 14:31:00,34.0,13.0,-100.00,West,272,2.0,4.0,41,-99.99,,,-99.99,,2013-02-11 22:31:00,
2013-02-11 14:41:00,34.0,11.0,-100.00,WSW,257,2.0,4.0,37,-99.99,,,-99.99,,2013-02-11 22:41:00,
2013-02-11 14:52:00,35.0,10.0,-100.00,WSW,248,2.0,4.0,35,-99.99,,,-99.99,,2013-02-11 22:52:00,
2013-02-11 15:01:00,34.0,12.0,-100.00,WSW,251,4.0,8.0,38,-99.99,,,-99.99,,2013-02-11 23:01:00,
2013-02-11 15:11:00,35.0,14.0,-100.00,West,260,3.0,5.0,40,-99.99,,,-99.99,,2013-02-11 23:11:00,
2013-02-11 15:21:00,35.0,12.0,-100.00,WNW,294,2.0,4.0,38,-99.99,,,-99.99,,2013-02-11 23:21:00,
2013-02-11 15:31:00,34.0,11.0,-100.00,WNW,302,3.0,5.0,38,-99.99,,,-99.99,,2013-02-11 23:31:00,
2013-02-11 15:41:00,34.0,12.0,-100.00,WNW,301,2.0,4.0,39,-99.99,,,-99.99,,2013-02-11 23:41:00,
2013-02-11 15:52:00,34.0,12.0,-100.00,WNW,301,2.0,4.0,39,-99.99,,,-99.99,,2013-02-11 23:52:00,
2013-02-11 16:01:00,36.0,12.0,-100.00,SW,236,2.0,4.0,36,-99.99,,,-99.99,,2013-02-12 00:01:00,
2013-02-11 16:11:00,36.0,11.0,-100.00,WNW,282,2.0,4.0,34,-99.99,,,-99.99,,2013-02-12 00:11:00,
2013-02-11 16:21:00,36.0,11.0,-100.00,NW,304,2.0,4.0,35,-99.99,,,-99.99,,2013-02-12 00:21:00,
2013-02-11 16:32:00,36.0,11.0,-100.00,NW,304,2.0,4.0,35,-99.99,,,-99.99,,2013-02-12 00:32:00,
2013-02-11 16:42:00,36.0,13.0,-100.00,West,265,2.0,4.0,38,-99.99,,,-99.99,,2013-02-12 00:42:00,
2013-02-11 16:52:00,37.0,12.0,-100.00,WSW,254,1.0,3.0,35,-99.99,,,-99.99,,2013-02-12 00:52:00,
2013-02-11 17:01:00,37.0,14.0,-100.00,West,264,1.0,3.0,38,-99.99,,,-99.99,,2013-02-12 01:01:00,
2013-02-11 17:11:00,37.0,13.0,-100.00,WSW,239,3.0,5.0,36,-99.99,,,-99.99,,2013-02-12 01:11:00,
2013-02-11 17:21:00,35.0,14.0,-100.00,SSW,198,0.0,1.0,41,-99.99,,,-99.99,,2013-02-12 01:21:00,
2013-02-11 17:31:00,34.0,14.0,-100.00,WSW,254,0.0,3.0,43,-99.99,,,-99.99,,2013-02-12 01:31:00,
2013-02-11 17:42:00,32.0,15.0,-100.00,SE,136,0.0,1.0,48,-99.99,,,-99.99,,2013-02-12 01:42:00,
2013-02-11 17:51:00,32.0,14.0,-100.00,SSW,208,0.0,2.0,48,-99.99,,,-99.99,,2013-02-12 01:51:00,
2013-02-11 18:01:00,31.0,15.0,-100.00,SE,126,0.0,2.0,52,-99.99,,,-99.99,,2013-02-12 02:01:00,
2013-02-11 18:11:00,31.0,14.0,-100.00,East,88,2.0,3.0,50,-99.99,,,-99.99,,2013-02-12 02:11:00,
2013-02-11 18:21:00,31.0,13.0,-100.00,East,89,3.0,5.0,47,-99.99,,,-99.99,,2013-02-12 02:21:00,
2013-02-11 18:31:00,32.0,10.0,-100.00,ENE,68,5.0,8.0,39,-99.99,,,-99.99,,2013-02-12 02:31:00,
2013-02-11 18:41:00,32.0,8.0,-100.00,ENE,76,3.0,5.0,36,-99.99,,,-99.99,,2013-02-12 02:41:00,
2013-02-11 18:52:00,32.0,8.0,-100.00,East,79,5.0,8.0,36,-99.99,,,-99.99,,2013-02-12 02:52:00,
2013-02-11 19:02:00,34.0,8.0,-100.00,ENE,68,7.0,10.0,33,-99.99,,,-99.99,,2013-02-12 03:02:00,
2013-02-11 19:11:00,34.0,8.0,-100.00,NE,49,7.0,11.0,33,-99.99,,,-99.99,,2013-02-12 03:11:00,
2013-02-11 19:21:00,34.0,8.0,-100.00,NE,52,7.0,13.0,33,-99.99,,,-99.99,,2013-02-12 03:21:00,
2013-02-11 19:31:00,32.0,10.0,-100.00,NE,47,3.0,6.0,39,-99.99,,,-99.99,,2013-02-12 03:31:00,
2013-02-11 19:41:00,30.0,11.0,-100.00,ENE,78,6.0,11.0,44,-99.99,,,-99.99,,2013-02-12 03:41:00,
2013-02-11 19:51:00,31.0,10.0,-100.00,ENE,61,3.0,4.0,41,-99.99,,,-99.99,,2013-02-12 03:51:00,
2013-02-11 20:01:00,31.0,11.0,-100.00,NNE,25,2.0,4.0,43,-99.99,,,-99.99,,2013-02-12 04:01:00,
2013-02-11 20:11:00,30.0,11.0,-100.00,ESE,106,2.0,4.0,46,-99.99,,,-99.99,,2013-02-12 04:11:00,
2013-02-11 20:21:00,30.0,11.0,-100.00,North,8,2.0,5.0,44,-99.99,,,-99.99,,2013-02-12 04:21:00,
2013-02-11 20:31:00,30.0,11.0,-100.00,North,8,2.0,5.0,44,-99.99,,,-99.99,,2013-02-12 04:31:00,
2013-02-11 20:41:00,30.0,11.0,-100.00,North,8,2.0,5.0,44,-99.99,,,-99.99,,2013-02-12 04:41:00,
2013-02-11 21:11:00,29.0,13.0,-100.00,SE,130,2.0,3.0,50,-99.99,,,-99.99,,2013-02-12 05:11:00,
2013-02-11 21:21:00,29.0,12.0,-100.00,SE,144,2.0,4.0,48,-99.99,,,-99.99,,2013-02-12 05:21:00,
2013-02-11 21:31:00,28.0,13.0,-100.00,SE,127,2.0,2.0,53,-99.99,,,-99.99,,2013-02-12 05:31:00,
2013-02-11 21:42:00,29.0,12.0,-100.00,ESE,103,2.0,5.0,49,-99.99,,,-99.99,,2013-02-12 05:42:00,
2013-02-11 21:52:00,28.0,13.0,-100.00,ESE,113,2.0,3.0,51,-99.99,,,-99.99,,2013-02-12 05:52:00,
2013-02-11 22:01:00,28.0,13.0,-100.00,ESE,123,3.0,4.0,54,-99.99,,,-99.99,,2013-02-12 06:01:00,
2013-02-11 22:12:00,27.0,14.0,-100.00,ESE,106,2.0,3.0,56,-99.99,,,-99.99,,2013-02-12 06:12:00,
2013-02-11 22:21:00,28.0,14.0,-100.00,ESE,117,2.0,3.0,55,-99.99,,,-99.99,,2013-02-12 06:21:00,
2013-02-11 22:31:00,27.0,14.0,-100.00,ESE,117,2.0,4.0,56,-99.99,,,-99.99,,2013-02-12 06:31:00,
2013-02-11 22:42:00,28.0,14.0,-100.00,SE,127,2.0,3.0,55,-99.99,,,-99.99,,2013-02-12 06:42:00,
2013-02-11 22:51:00,28.0,14.0,-100.00,South,188,1.0,3.0,56,-99.99,,,-99.99,,2013-02-12 06:51:00,
2013-02-11 23:01:00,28.0,14.0,-100.00,East,93,3.0,4.0,56,-99.99,,,-99.99,,2013-02-12 07:01:00,
2013-02-11 23:11:00,27.0,14.0,-100.00,ESE,106,4.0,6.0,58,-99.99,,,-99.99,,2013-02-12 07:11:00,
2013-02-11 23:21:00,29.0,14.0,-100.00,East,89,5.0,9.0,54,-99.99,,,-99.99,,2013-02-12 07:21:00,
2013-02-11 23:31:00,30.0,15.0,-100.00,East,86,3.0,6.0,53,-99.99,,,-99.99,,2013-02-12 07:31:00,
2013-02-11 23:41:00,30.0,14.0,-100.00,NE,49,2.0,5.0,49,-99.99,,,-99.99,,2013-02-12 07:41:00,
2013-02-11 23:51:00,29.0,14.0,-100.00,SE,127,3.0,5.0,53,-99.99,,,-99.99,,2013-02-12 07:51:00,